sensor_id;sensor_type;location;lat;lon;timestamp;noise_LAeq;noise_LA_min;noise_LA_max;noise_LA01;noise_LA95
76217;Laerm;65010;50.190;18.930;2024-03-23T00:55:47;43.06;40.41;45.31;;
76217;Laerm;65010;50.190;18.930;2024-03-23T00:58:49;43.08;40.93;44.79;;
76217;Laerm;65010;50.190;18.930;2024-03-23T01:01:51;43.19;40.61;45.47;;
76217;Laerm;65010;50.190;18.930;2024-03-23T01:04:53;43.16;39.82;45.12;;
76217;Laerm;65010;50.190;18.930;2024-03-23T01:07:57;43.22;40.45;44.92;;
76217;Laerm;65010;50.190;18.930;2024-03-23T01:11:01;43.15;40.34;45.42;;
76217;Laerm;65010;50.190;18.930;2024-03-23T01:14:03;43.32;40.94;46.12;;
76217;Laerm;65010;50.190;18.930;2024-03-23T01:17:06;43.19;40.47;45.61;;
76217;Laerm;65010;50.190;18.930;2024-03-23T01:20:08;42.96;39.52;44.93;;
76217;Laerm;65010;50.190;18.930;2024-03-23T01:23:13;42.91;39.79;45.54;;
76217;Laerm;65010;50.190;18.930;2024-03-23T01:26:15;43.08;39.72;44.74;;
76217;Laerm;65010;50.190;18.930;2024-03-23T01:29:17;43.21;40.10;46.10;;
76217;Laerm;65010;50.190;18.930;2024-03-23T01:32:20;43.38;41.08;45.95;;
76217;Laerm;65010;50.190;18.930;2024-03-23T01:35:23;43.11;40.46;45.70;;
76217;Laerm;65010;50.190;18.930;2024-03-23T01:38:27;43.15;40.37;45.46;;
76217;Laerm;65010;50.190;18.930;2024-03-23T01:41:29;43.30;40.15;46.00;;
76217;Laerm;65010;50.190;18.930;2024-03-23T01:44:31;43.25;40.95;46.12;;
76217;Laerm;65010;50.190;18.930;2024-03-23T01:47:33;43.11;40.24;45.27;;
76217;Laerm;65010;50.190;18.930;2024-03-23T01:50:35;43.27;40.40;45.15;;
76217;Laerm;65010;50.190;18.930;2024-03-23T01:53:40;43.08;40.51;44.91;;
76217;Laerm;65010;50.190;18.930;2024-03-23T01:56:42;43.16;40.24;45.31;;
76217;Laerm;65010;50.190;18.930;2024-03-23T01:59:45;43.16;40.18;46.00;;
76217;Laerm;65010;50.190;18.930;2024-03-23T02:02:47;43.16;40.44;45.04;;
76217;Laerm;65010;50.190;18.930;2024-03-23T02:05:50;43.05;39.71;44.69;;
76217;Laerm;65010;50.190;18.930;2024-03-23T02:08:55;43.14;39.81;45.91;;
76217;Laerm;65010;50.190;18.930;2024-03-23T02:11:58;43.06;40.66;45.17;;
76217;Laerm;65010;50.190;18.930;2024-03-23T02:14:59;42.99;39.68;45.31;;
76217;Laerm;65010;50.190;18.930;2024-03-23T02:18:02;43.05;39.98;44.73;;
76217;Laerm;65010;50.190;18.930;2024-03-23T02:21:04;43.07;40.20;45.01;;
76217;Laerm;65010;50.190;18.930;2024-03-23T02:24:10;42.98;40.35;45.80;;
76217;Laerm;65010;50.190;18.930;2024-03-23T02:27:12;43.10;39.61;45.47;;
76217;Laerm;65010;50.190;18.930;2024-03-23T02:30:15;43.12;40.41;46.16;;
76217;Laerm;65010;50.190;18.930;2024-03-23T02:33:17;43.01;39.94;44.85;;
76217;Laerm;65010;50.190;18.930;2024-03-23T02:36:19;43.09;40.32;45.28;;
76217;Laerm;65010;50.190;18.930;2024-03-23T02:39:24;43.37;39.55;45.36;;
76217;Laerm;65010;50.190;18.930;2024-03-23T02:42:26;43.28;41.21;46.39;;
76217;Laerm;65010;50.190;18.930;2024-03-23T02:45:28;43.05;39.60;46.36;;
76217;Laerm;65010;50.190;18.930;2024-03-23T02:48:30;43.07;40.60;45.20;;
76217;Laerm;65010;50.190;18.930;2024-03-23T02:51:32;43.09;40.42;45.02;;
76217;Laerm;65010;50.190;18.930;2024-03-23T02:54:37;43.28;39.92;45.91;;
76217;Laerm;65010;50.190;18.930;2024-03-23T02:57:39;43.10;40.16;45.86;;
76217;Laerm;65010;50.190;18.930;2024-03-23T03:00:42;43.00;40.31;45.18;;
76217;Laerm;65010;50.190;18.930;2024-03-23T03:03:43;43.13;39.65;45.30;;
76217;Laerm;65010;50.190;18.930;2024-03-23T03:06:47;42.98;40.37;44.67;;
76217;Laerm;65010;50.190;18.930;2024-03-23T03:09:51;42.99;40.69;45.84;;
76217;Laerm;65010;50.190;18.930;2024-03-23T03:12:54;43.12;40.26;45.25;;
76217;Laerm;65010;50.190;18.930;2024-03-23T03:15:55;43.08;39.53;46.26;;
76217;Laerm;65010;50.190;18.930;2024-03-23T03:18:58;43.01;40.00;44.83;;
76217;Laerm;65010;50.190;18.930;2024-03-23T03:21:59;42.99;40.68;44.77;;
76217;Laerm;65010;50.190;18.930;2024-03-23T03:25:06;42.90;40.44;44.85;;
76217;Laerm;65010;50.190;18.930;2024-03-23T03:28:08;43.17;40.09;45.63;;
76217;Laerm;65010;50.190;18.930;2024-03-23T03:31:10;43.08;40.91;45.05;;
76217;Laerm;65010;50.190;18.930;2024-03-23T03:34:12;43.32;41.16;45.64;;
76217;Laerm;65010;50.190;18.930;2024-03-23T03:37:14;43.33;40.35;45.87;;
76217;Laerm;65010;50.190;18.930;2024-03-23T03:40:18;43.26;40.06;45.09;;
76217;Laerm;65010;50.190;18.930;2024-03-23T03:43:21;43.21;40.45;45.17;;
76217;Laerm;65010;50.190;18.930;2024-03-23T03:46:22;43.24;40.58;45.67;;
76217;Laerm;65010;50.190;18.930;2024-03-23T03:49:25;43.13;41.05;45.16;;
76217;Laerm;65010;50.190;18.930;2024-03-23T03:52:26;43.03;40.74;45.41;;
76217;Laerm;65010;50.190;18.930;2024-03-23T03:55:31;42.93;39.78;46.05;;
76217;Laerm;65010;50.190;18.930;2024-03-23T03:58:33;43.04;40.35;45.69;;
76217;Laerm;65010;50.190;18.930;2024-03-23T04:01:35;43.06;39.98;44.65;;
76217;Laerm;65010;50.190;18.930;2024-03-23T04:04:37;43.16;40.05;45.90;;
76217;Laerm;65010;50.190;18.930;2024-03-23T04:07:39;43.56;40.51;45.45;;
76217;Laerm;65010;50.190;18.930;2024-03-23T04:10:43;43.22;41.00;46.06;;
76217;Laerm;65010;50.190;18.930;2024-03-23T04:13:46;43.19;39.45;45.76;;
76217;Laerm;65010;50.190;18.930;2024-03-23T04:16:47;43.39;40.99;45.59;;
76217;Laerm;65010;50.190;18.930;2024-03-23T04:19:50;43.30;40.45;45.40;;
76217;Laerm;65010;50.190;18.930;2024-03-23T04:22:51;43.20;40.22;45.39;;
76217;Laerm;65010;50.190;18.930;2024-03-23T04:26:03;43.23;39.91;45.04;;
76217;Laerm;65010;50.190;18.930;2024-03-23T04:29:05;43.30;40.68;45.24;;
76217;Laerm;65010;50.190;18.930;2024-03-23T04:32:08;43.28;40.14;44.98;;
76217;Laerm;65010;50.190;18.930;2024-03-23T04:35:09;43.32;40.61;46.08;;
76217;Laerm;65010;50.190;18.930;2024-03-23T04:38:11;43.30;40.18;46.35;;
76217;Laerm;65010;50.190;18.930;2024-03-23T04:41:16;43.35;40.33;45.70;;
76217;Laerm;65010;50.190;18.930;2024-03-23T04:44:18;43.33;40.44;44.96;;
76217;Laerm;65010;50.190;18.930;2024-03-23T04:47:20;43.16;40.16;45.46;;
76217;Laerm;65010;50.190;18.930;2024-03-23T04:50:22;43.21;40.23;45.62;;
76217;Laerm;65010;50.190;18.930;2024-03-23T04:53:24;43.17;40.22;45.40;;
76217;Laerm;65010;50.190;18.930;2024-03-23T04:56:33;43.07;40.60;44.75;;
76217;Laerm;65010;50.190;18.930;2024-03-23T04:59:34;43.05;41.06;45.70;;
76217;Laerm;65010;50.190;18.930;2024-03-23T05:02:37;43.02;40.20;46.22;;
76217;Laerm;65010;50.190;18.930;2024-03-23T05:05:39;43.20;40.66;45.39;;
76217;Laerm;65010;50.190;18.930;2024-03-23T05:08:41;43.17;40.14;45.51;;
76217;Laerm;65010;50.190;18.930;2024-03-23T05:11:46;43.07;40.48;44.73;;
76217;Laerm;65010;50.190;18.930;2024-03-23T05:14:48;43.27;40.67;46.28;;
76217;Laerm;65010;50.190;18.930;2024-03-23T05:17:50;43.07;40.44;45.51;;
76217;Laerm;65010;50.190;18.930;2024-03-23T05:20:56;43.12;40.28;44.96;;
76217;Laerm;65010;50.190;18.930;2024-03-23T05:23:57;43.15;40.56;44.97;;
76217;Laerm;65010;50.190;18.930;2024-03-23T05:27:03;43.20;40.38;45.04;;
76217;Laerm;65010;50.190;18.930;2024-03-23T05:30:08;43.18;40.29;45.18;;
76217;Laerm;65010;50.190;18.930;2024-03-23T05:33:11;43.22;41.02;45.11;;
76217;Laerm;65010;50.190;18.930;2024-03-23T05:36:12;43.30;41.13;46.25;;
76217;Laerm;65010;50.190;18.930;2024-03-23T05:39:15;43.03;40.05;45.50;;
76217;Laerm;65010;50.190;18.930;2024-03-23T05:42:20;43.20;41.18;45.67;;
76217;Laerm;65010;50.190;18.930;2024-03-23T05:45:22;43.00;40.19;46.62;;
76217;Laerm;65010;50.190;18.930;2024-03-23T05:48:25;42.95;39.96;45.58;;
76217;Laerm;65010;50.190;18.930;2024-03-23T05:51:28;42.86;40.50;46.32;;
76217;Laerm;65010;50.190;18.930;2024-03-23T05:54:30;42.86;40.38;44.44;;
76217;Laerm;65010;50.190;18.930;2024-03-23T05:57:35;43.07;40.10;45.35;;
76217;Laerm;65010;50.190;18.930;2024-03-23T06:00:36;43.02;39.98;45.18;;
76217;Laerm;65010;50.190;18.930;2024-03-23T06:03:39;42.98;40.83;46.05;;
76217;Laerm;65010;50.190;18.930;2024-03-23T06:06:41;42.83;41.17;45.97;;
76217;Laerm;65010;50.190;18.930;2024-03-23T06:09:43;42.80;40.18;46.67;;
76217;Laerm;65010;50.190;18.930;2024-03-23T06:12:48;42.82;40.22;46.80;;
76217;Laerm;65010;50.190;18.930;2024-03-23T06:15:51;42.83;40.30;45.83;;
76217;Laerm;65010;50.190;18.930;2024-03-23T06:18:53;42.95;40.41;46.58;;
76217;Laerm;65010;50.190;18.930;2024-03-23T06:21:56;42.98;40.56;46.03;;
76217;Laerm;65010;50.190;18.930;2024-03-23T06:24:58;43.03;40.18;46.42;;
76217;Laerm;65010;50.190;18.930;2024-03-23T06:28:04;42.95;39.92;45.67;;
76217;Laerm;65010;50.190;18.930;2024-03-23T06:31:09;42.78;40.36;46.28;;
76217;Laerm;65010;50.190;18.930;2024-03-23T06:34:11;42.66;40.66;46.33;;
76217;Laerm;65010;50.190;18.930;2024-03-23T06:37:13;42.70;39.89;45.90;;
76217;Laerm;65010;50.190;18.930;2024-03-23T06:40:15;42.73;40.31;47.09;;
76217;Laerm;65010;50.190;18.930;2024-03-23T06:43:20;42.70;40.57;47.31;;
76217;Laerm;65010;50.190;18.930;2024-03-23T06:46:22;42.73;40.80;45.91;;
76217;Laerm;65010;50.190;18.930;2024-03-23T06:49:24;42.70;40.67;46.77;;
76217;Laerm;65010;50.190;18.930;2024-03-23T06:52:26;42.58;40.04;47.35;;
76217;Laerm;65010;50.190;18.930;2024-03-23T06:55:28;42.54;40.07;47.17;;
76217;Laerm;65010;50.190;18.930;2024-03-23T06:58:33;42.48;40.63;46.34;;
76217;Laerm;65010;50.190;18.930;2024-03-23T07:01:35;42.41;40.51;46.84;;
76217;Laerm;65010;50.190;18.930;2024-03-23T07:04:37;42.48;39.93;48.25;;
76217;Laerm;65010;50.190;18.930;2024-03-23T07:07:39;42.49;40.26;49.19;;
76217;Laerm;65010;50.190;18.930;2024-03-23T07:10:42;42.36;40.31;48.71;;
76217;Laerm;65010;50.190;18.930;2024-03-23T07:13:46;42.33;39.13;48.27;;
76217;Laerm;65010;50.190;18.930;2024-03-23T07:16:49;42.33;39.80;49.14;;
76217;Laerm;65010;50.190;18.930;2024-03-23T07:19:51;42.26;39.41;50.84;;
76217;Laerm;65010;50.190;18.930;2024-03-23T07:22:53;42.21;40.55;50.15;;
76217;Laerm;65010;50.190;18.930;2024-03-23T07:25:58;42.34;40.11;51.78;;
76217;Laerm;65010;50.190;18.930;2024-03-23T07:29:04;42.57;40.49;52.66;;
76217;Laerm;65010;50.190;18.930;2024-03-23T07:32:06;43.73;39.31;52.70;;
76217;Laerm;65010;50.190;18.930;2024-03-23T07:35:08;52.60;46.83;65.20;;
76217;Laerm;65010;50.190;18.930;2024-03-23T07:38:10;48.68;43.61;57.66;;
76217;Laerm;65010;50.190;18.930;2024-03-23T07:41:17;46.19;44.35;51.20;;
76217;Laerm;65010;50.190;18.930;2024-03-23T07:44:21;46.09;44.32;52.80;;
76217;Laerm;65010;50.190;18.930;2024-03-23T07:47:23;45.99;44.30;52.22;;
76217;Laerm;65010;50.190;18.930;2024-03-23T07:50:25;46.10;44.32;50.54;;
76217;Laerm;65010;50.190;18.930;2024-03-23T07:53:28;46.35;43.89;53.03;;
76217;Laerm;65010;50.190;18.930;2024-03-23T07:56:30;46.51;44.55;55.34;;
76217;Laerm;65010;50.190;18.930;2024-03-23T07:59:35;46.66;44.68;55.68;;
76217;Laerm;65010;50.190;18.930;2024-03-23T08:02:36;46.92;42.75;57.73;;
76217;Laerm;65010;50.190;18.930;2024-03-23T08:05:39;49.59;45.07;62.45;;
76217;Laerm;65010;50.190;18.930;2024-03-23T08:08:43;53.57;46.71;67.21;;
76217;Laerm;65010;50.190;18.930;2024-03-23T08:11:46;54.71;47.05;63.35;;
76217;Laerm;65010;50.190;18.930;2024-03-23T08:14:50;54.55;47.47;62.57;;
76217;Laerm;65010;50.190;18.930;2024-03-23T08:17:52;53.61;46.40;63.54;;
76217;Laerm;65010;50.190;18.930;2024-03-23T08:20:57;55.54;46.36;63.53;;
76217;Laerm;65010;50.190;18.930;2024-03-23T08:24:00;56.30;40.17;68.09;;
76217;Laerm;65010;50.190;18.930;2024-03-23T08:27:02;54.12;37.78;68.09;;
76217;Laerm;65010;50.190;18.930;2024-03-23T08:30:09;49.81;37.53;58.07;;
76217;Laerm;65010;50.190;18.930;2024-03-23T08:33:10;46.44;38.88;54.48;;
76217;Laerm;65010;50.190;18.930;2024-03-23T08:36:13;44.46;40.33;53.93;;
76217;Laerm;65010;50.190;18.930;2024-03-23T08:39:14;44.13;40.43;52.95;;
76217;Laerm;65010;50.190;18.930;2024-03-23T08:42:17;43.97;40.34;53.04;;
76217;Laerm;65010;50.190;18.930;2024-03-23T08:45:21;44.34;37.73;58.82;;
76217;Laerm;65010;50.190;18.930;2024-03-23T08:48:23;45.59;38.35;64.91;;
76217;Laerm;65010;50.190;18.930;2024-03-23T08:51:25;44.47;38.09;57.95;;
76217;Laerm;65010;50.190;18.930;2024-03-23T08:54:27;44.54;38.08;56.14;;
76217;Laerm;65010;50.190;18.930;2024-03-23T08:57:29;45.15;38.95;56.01;;
76217;Laerm;65010;50.190;18.930;2024-03-23T09:00:37;46.77;39.31;56.00;;
76217;Laerm;65010;50.190;18.930;2024-03-23T09:03:39;47.89;38.29;57.41;;
76217;Laerm;65010;50.190;18.930;2024-03-23T09:06:43;48.80;39.00;56.34;;
76217;Laerm;65010;50.190;18.930;2024-03-23T09:09:44;48.37;39.55;57.18;;
76217;Laerm;65010;50.190;18.930;2024-03-23T09:12:47;48.21;39.79;57.63;;
76217;Laerm;65010;50.190;18.930;2024-03-23T09:15:52;47.88;38.22;56.42;;
76217;Laerm;65010;50.190;18.930;2024-03-23T09:18:55;47.54;39.35;56.67;;
76217;Laerm;65010;50.190;18.930;2024-03-23T09:21:57;46.32;38.33;56.55;;
76217;Laerm;65010;50.190;18.930;2024-03-23T09:25:00;46.29;39.44;56.20;;
76217;Laerm;65010;50.190;18.930;2024-03-23T09:28:01;46.89;39.39;56.73;;
76217;Laerm;65010;50.190;18.930;2024-03-23T09:31:08;46.92;39.41;56.30;;
76217;Laerm;65010;50.190;18.930;2024-03-23T09:34:10;47.04;38.44;56.21;;
76217;Laerm;65010;50.190;18.930;2024-03-23T09:37:12;46.55;39.53;56.33;;
76217;Laerm;65010;50.190;18.930;2024-03-23T09:40:14;46.74;40.17;58.34;;
76217;Laerm;65010;50.190;18.930;2024-03-23T09:43:16;46.77;39.20;56.37;;
76217;Laerm;65010;50.190;18.930;2024-03-23T09:46:21;48.20;39.84;56.49;;
76217;Laerm;65010;50.190;18.930;2024-03-23T09:49:23;49.65;39.17;57.81;;
76217;Laerm;65010;50.190;18.930;2024-03-23T09:52:25;49.96;39.89;57.33;;
76217;Laerm;65010;50.190;18.930;2024-03-23T09:55:28;50.10;39.68;57.38;;
76217;Laerm;65010;50.190;18.930;2024-03-23T09:58:30;50.36;39.72;57.55;;
76217;Laerm;65010;50.190;18.930;2024-03-23T10:01:36;50.80;40.16;57.06;;
76217;Laerm;65010;50.190;18.930;2024-03-23T10:04:38;50.73;38.98;57.77;;
76217;Laerm;65010;50.190;18.930;2024-03-23T10:07:40;48.02;38.62;57.41;;
76217;Laerm;65010;50.190;18.930;2024-03-23T10:10:43;48.28;38.36;57.84;;
76217;Laerm;65010;50.190;18.930;2024-03-23T10:13:46;48.99;39.54;57.92;;
76217;Laerm;65010;50.190;18.930;2024-03-23T10:16:50;49.60;38.67;57.47;;
76217;Laerm;65010;50.190;18.930;2024-03-23T10:19:56;48.36;38.86;56.95;;
76217;Laerm;65010;50.190;18.930;2024-03-23T10:22:58;47.58;37.22;57.21;;
76217;Laerm;65010;50.190;18.930;2024-03-23T10:26:13;46.67;37.00;57.05;;
76217;Laerm;65010;50.190;18.930;2024-03-23T10:29:17;45.00;36.86;57.28;;
76217;Laerm;65010;50.190;18.930;2024-03-23T10:32:22;45.87;37.51;56.79;;
76217;Laerm;65010;50.190;18.930;2024-03-23T10:35:24;45.53;36.77;56.28;;
76217;Laerm;65010;50.190;18.930;2024-03-23T10:38:26;45.41;37.14;57.13;;
76217;Laerm;65010;50.190;18.930;2024-03-23T10:41:28;44.73;36.57;55.98;;
76217;Laerm;65010;50.190;18.930;2024-03-23T10:44:34;45.65;37.00;57.23;;
76217;Laerm;65010;50.190;18.930;2024-03-23T10:47:39;44.92;37.04;56.09;;
76217;Laerm;65010;50.190;18.930;2024-03-23T10:50:41;44.27;37.11;56.88;;
76217;Laerm;65010;50.190;18.930;2024-03-23T10:53:46;43.83;37.02;56.44;;
76217;Laerm;65010;50.190;18.930;2024-03-23T10:57:05;43.45;36.75;58.47;;
76217;Laerm;65010;50.190;18.930;2024-03-23T11:00:10;43.45;37.17;59.33;;
76217;Laerm;65010;50.190;18.930;2024-03-23T11:03:35;42.78;36.01;56.17;;
76217;Laerm;65010;50.190;18.930;2024-03-23T11:06:38;43.73;36.66;57.70;;
76217;Laerm;65010;50.190;18.930;2024-03-23T11:09:42;44.71;36.97;57.33;;
76217;Laerm;65010;50.190;18.930;2024-03-23T11:12:45;45.28;37.04;56.27;;
76217;Laerm;65010;50.190;18.930;2024-03-23T11:15:48;45.08;36.52;56.74;;
76217;Laerm;65010;50.190;18.930;2024-03-23T11:18:52;44.59;36.68;56.53;;
76217;Laerm;65010;50.190;18.930;2024-03-23T11:21:55;45.68;36.87;63.57;;
76217;Laerm;65010;50.190;18.930;2024-03-23T11:24:57;46.04;36.29;63.59;;
76217;Laerm;65010;50.190;18.930;2024-03-23T11:28:11;45.81;37.54;57.25;;
76217;Laerm;65010;50.190;18.930;2024-03-23T11:31:14;44.75;36.92;56.15;;
76217;Laerm;65010;50.190;18.930;2024-03-23T11:34:22;50.19;37.04;58.38;;
76217;Laerm;65010;50.190;18.930;2024-03-23T11:37:24;46.21;37.75;56.96;;
76217;Laerm;65010;50.190;18.930;2024-03-23T11:40:26;43.50;36.87;55.77;;
76217;Laerm;65010;50.190;18.930;2024-03-23T11:43:28;45.84;36.93;65.02;;
76217;Laerm;65010;50.190;18.930;2024-03-23T11:46:30;45.69;37.39;56.55;;
76217;Laerm;65010;50.190;18.930;2024-03-23T11:49:35;44.58;36.70;55.99;;
76217;Laerm;65010;50.190;18.930;2024-03-23T11:52:38;45.07;36.26;57.64;;
76217;Laerm;65010;50.190;18.930;2024-03-23T11:55:42;45.41;37.04;57.33;;
76217;Laerm;65010;50.190;18.930;2024-03-23T11:58:45;46.70;36.91;63.70;;
76217;Laerm;65010;50.190;18.930;2024-03-23T12:01:46;45.15;36.40;56.78;;
76217;Laerm;65010;50.190;18.930;2024-03-23T12:04:51;42.57;36.20;55.83;;
76217;Laerm;65010;50.190;18.930;2024-03-23T12:08:18;48.16;36.73;57.35;;
76217;Laerm;65010;50.190;18.930;2024-03-23T12:11:20;43.31;36.83;56.46;;
76217;Laerm;65010;50.190;18.930;2024-03-23T12:14:22;44.80;37.09;57.82;;
76217;Laerm;65010;50.190;18.930;2024-03-23T12:17:24;45.15;36.97;56.52;;
76217;Laerm;65010;50.190;18.930;2024-03-23T12:20:29;45.58;36.11;56.19;;
76217;Laerm;65010;50.190;18.930;2024-03-23T12:23:31;45.09;36.67;56.36;;
76217;Laerm;65010;50.190;18.930;2024-03-23T12:26:33;44.80;36.77;56.71;;
76217;Laerm;65010;50.190;18.930;2024-03-23T12:29:36;44.38;36.39;55.86;;
76217;Laerm;65010;50.190;18.930;2024-03-23T12:32:38;44.14;36.70;56.27;;
76217;Laerm;65010;50.190;18.930;2024-03-23T12:35:42;43.85;36.54;56.11;;
76217;Laerm;65010;50.190;18.930;2024-03-23T12:38:44;44.06;36.60;56.65;;
76217;Laerm;65010;50.190;18.930;2024-03-23T12:41:47;45.15;36.72;56.15;;
76217;Laerm;65010;50.190;18.930;2024-03-23T12:44:49;45.97;36.99;64.62;;
76217;Laerm;65010;50.190;18.930;2024-03-23T12:47:51;46.75;37.24;57.72;;
76217;Laerm;65010;50.190;18.930;2024-03-23T12:50:57;45.80;36.90;56.08;;
76217;Laerm;65010;50.190;18.930;2024-03-23T12:54:00;46.46;37.26;57.30;;
76217;Laerm;65010;50.190;18.930;2024-03-23T12:57:01;47.58;37.65;64.37;;
76217;Laerm;65010;50.190;18.930;2024-03-23T13:00:05;46.85;36.84;56.35;;
76217;Laerm;65010;50.190;18.930;2024-03-23T13:03:14;46.54;36.94;56.28;;
76217;Laerm;65010;50.190;18.930;2024-03-23T13:06:19;45.57;36.27;57.23;;
76217;Laerm;65010;50.190;18.930;2024-03-23T13:09:21;44.05;36.27;61.93;;
76217;Laerm;65010;50.190;18.930;2024-03-23T13:12:23;46.87;36.99;57.15;;
76217;Laerm;65010;50.190;18.930;2024-03-23T13:15:25;47.78;38.34;56.46;;
76217;Laerm;65010;50.190;18.930;2024-03-23T13:18:28;49.30;37.91;57.16;;
76217;Laerm;65010;50.190;18.930;2024-03-23T13:21:32;48.91;39.50;57.28;;
76217;Laerm;65010;50.190;18.930;2024-03-23T13:24:34;49.53;39.87;57.45;;
76217;Laerm;65010;50.190;18.930;2024-03-23T13:27:36;48.18;39.22;57.34;;
76217;Laerm;65010;50.190;18.930;2024-03-23T13:30:39;47.40;39.98;56.92;;
76217;Laerm;65010;50.190;18.930;2024-03-23T13:33:40;46.68;39.15;56.53;;
76217;Laerm;65010;50.190;18.930;2024-03-23T13:36:47;46.07;39.79;56.10;;
76217;Laerm;65010;50.190;18.930;2024-03-23T13:39:49;45.27;39.83;57.13;;
76217;Laerm;65010;50.190;18.930;2024-03-23T13:42:51;44.78;39.03;55.81;;
76217;Laerm;65010;50.190;18.930;2024-03-23T13:45:56;44.49;38.81;55.50;;
76217;Laerm;65010;50.190;18.930;2024-03-23T13:49:01;44.44;38.43;55.11;;
76217;Laerm;65010;50.190;18.930;2024-03-23T13:52:06;44.23;37.27;54.30;;
76217;Laerm;65010;50.190;18.930;2024-03-23T13:55:08;43.77;37.39;55.99;;
76217;Laerm;65010;50.190;18.930;2024-03-23T13:58:10;45.32;37.55;59.54;;
76217;Laerm;65010;50.190;18.930;2024-03-23T14:01:17;43.14;37.82;51.97;;
76217;Laerm;65010;50.190;18.930;2024-03-23T14:04:19;44.94;36.86;65.44;;
76217;Laerm;65010;50.190;18.930;2024-03-23T14:07:24;44.08;36.60;64.52;;
76217;Laerm;65010;50.190;18.930;2024-03-23T14:10:26;46.66;36.36;64.16;;
76217;Laerm;65010;50.190;18.930;2024-03-23T14:13:28;48.65;37.88;55.92;;
76217;Laerm;65010;50.190;18.930;2024-03-23T14:16:31;47.31;41.82;53.12;;
76217;Laerm;65010;50.190;18.930;2024-03-23T14:19:34;46.21;42.89;48.37;;
76217;Laerm;65010;50.190;18.930;2024-03-23T14:22:38;46.36;43.10;48.60;;
76217;Laerm;65010;50.190;18.930;2024-03-23T14:25:41;46.47;43.69;49.50;;
76217;Laerm;65010;50.190;18.930;2024-03-23T14:28:43;46.53;43.91;49.71;;
76217;Laerm;65010;50.190;18.930;2024-03-23T14:31:45;47.00;43.62;49.29;;
76217;Laerm;65010;50.190;18.930;2024-03-23T14:34:47;47.46;44.35;50.38;;
76217;Laerm;65010;50.190;18.930;2024-03-23T14:37:52;47.63;43.12;50.12;;
76217;Laerm;65010;50.190;18.930;2024-03-23T14:40:58;48.19;44.73;50.74;;
76217;Laerm;65010;50.190;18.930;2024-03-23T14:44:01;48.81;44.42;51.34;;
76217;Laerm;65010;50.190;18.930;2024-03-23T14:47:03;49.31;41.37;51.63;;
76217;Laerm;65010;50.190;18.930;2024-03-23T14:50:07;49.65;46.52;53.10;;
76217;Laerm;65010;50.190;18.930;2024-03-23T14:53:12;49.70;46.46;52.85;;
76217;Laerm;65010;50.190;18.930;2024-03-23T14:56:15;50.28;43.97;52.81;;
76217;Laerm;65010;50.190;18.930;2024-03-23T14:59:20;50.03;46.92;52.91;;
76217;Laerm;65010;50.190;18.930;2024-03-23T15:02:22;50.34;46.91;52.58;;
76217;Laerm;65010;50.190;18.930;2024-03-23T15:05:26;50.24;42.55;52.27;;
76217;Laerm;65010;50.190;18.930;2024-03-23T15:08:33;49.77;46.34;51.92;;
76217;Laerm;65010;50.190;18.930;2024-03-23T15:11:35;49.32;43.19;51.76;;
76217;Laerm;65010;50.190;18.930;2024-03-23T15:14:38;49.01;42.04;52.08;;
76217;Laerm;65010;50.190;18.930;2024-03-23T15:17:39;48.89;45.70;51.16;;
76217;Laerm;65010;50.190;18.930;2024-03-23T15:20:52;48.46;42.81;50.73;;
76217;Laerm;65010;50.190;18.930;2024-03-23T15:23:57;48.36;45.27;51.59;;
76217;Laerm;65010;50.190;18.930;2024-03-23T15:26:59;48.36;45.34;51.83;;
76217;Laerm;65010;50.190;18.930;2024-03-23T15:30:01;48.24;44.56;51.63;;
76217;Laerm;65010;50.190;18.930;2024-03-23T15:33:04;48.25;45.00;50.47;;
76217;Laerm;65010;50.190;18.930;2024-03-23T15:36:07;48.65;43.02;54.45;;
76217;Laerm;65010;50.190;18.930;2024-03-23T15:39:12;48.17;42.95;50.69;;
76217;Laerm;65010;50.190;18.930;2024-03-23T15:42:14;48.92;45.17;51.11;;
76217;Laerm;65010;50.190;18.930;2024-03-23T15:45:20;48.74;45.19;51.19;;
76217;Laerm;65010;50.190;18.930;2024-03-23T15:48:22;49.04;45.79;51.88;;
76217;Laerm;65010;50.190;18.930;2024-03-23T15:51:25;48.66;42.58;50.54;;
76217;Laerm;65010;50.190;18.930;2024-03-23T15:54:29;48.61;42.33;51.23;;
76217;Laerm;65010;50.190;18.930;2024-03-23T15:57:33;48.44;45.51;50.78;;
76217;Laerm;65010;50.190;18.930;2024-03-23T16:00:34;48.43;45.40;50.85;;
76217;Laerm;65010;50.190;18.930;2024-03-23T16:03:38;48.31;43.31;51.18;;
76217;Laerm;65010;50.190;18.930;2024-03-23T16:06:40;48.07;42.32;51.31;;
76217;Laerm;65010;50.190;18.930;2024-03-23T16:09:47;48.06;42.17;55.31;;
76217;Laerm;65010;50.190;18.930;2024-03-23T16:12:49;48.36;45.35;51.82;;
76217;Laerm;65010;50.190;18.930;2024-03-23T16:15:55;48.24;42.85;50.93;;
76217;Laerm;65010;50.190;18.930;2024-03-23T16:18:57;48.27;43.58;53.84;;
76217;Laerm;65010;50.190;18.930;2024-03-23T16:22:00;48.23;43.02;51.25;;
76217;Laerm;65010;50.190;18.930;2024-03-23T16:25:05;48.22;44.69;50.84;;
76217;Laerm;65010;50.190;18.930;2024-03-23T16:28:08;48.03;45.02;50.29;;
76217;Laerm;65010;50.190;18.930;2024-03-23T16:31:11;48.11;44.95;51.19;;
76217;Laerm;65010;50.190;18.930;2024-03-23T16:34:13;48.04;43.13;50.89;;
76217;Laerm;65010;50.190;18.930;2024-03-23T16:37:15;47.77;44.73;49.57;;
76217;Laerm;65010;50.190;18.930;2024-03-23T16:40:20;47.40;44.47;49.54;;
76217;Laerm;65010;50.190;18.930;2024-03-23T16:43:23;47.22;44.64;50.62;;
76217;Laerm;65010;50.190;18.930;2024-03-23T16:46:29;46.81;44.22;49.82;;
76217;Laerm;65010;50.190;18.930;2024-03-23T16:49:31;46.60;43.12;49.04;;
76217;Laerm;65010;50.190;18.930;2024-03-23T16:52:34;46.49;42.34;48.66;;
76217;Laerm;65010;50.190;18.930;2024-03-23T16:55:38;46.50;43.11;48.42;;
76217;Laerm;65010;50.190;18.930;2024-03-23T16:58:40;46.24;43.15;49.08;;
76217;Laerm;65010;50.190;18.930;2024-03-23T17:01:43;45.42;42.41;47.83;;
76217;Laerm;65010;50.190;18.930;2024-03-23T17:04:51;44.95;41.26;47.58;;
76217;Laerm;65010;50.190;18.930;2024-03-23T17:07:53;44.28;41.50;47.04;;
76217;Laerm;65010;50.190;18.930;2024-03-23T17:11:01;44.28;40.99;47.69;;
76217;Laerm;65010;50.190;18.930;2024-03-23T17:14:03;44.18;40.79;46.75;;
76217;Laerm;65010;50.190;18.930;2024-03-23T17:17:05;43.79;39.97;55.48;;
76217;Laerm;65010;50.190;18.930;2024-03-23T17:20:07;43.89;39.77;48.82;;
76217;Laerm;65010;50.190;18.930;2024-03-23T17:23:12;44.59;39.48;49.01;;
76217;Laerm;65010;50.190;18.930;2024-03-23T17:26:20;43.81;39.61;48.09;;
76217;Laerm;65010;50.190;18.930;2024-03-23T17:29:22;43.44;38.82;47.17;;
76217;Laerm;65010;50.190;18.930;2024-03-23T17:32:29;44.13;39.33;48.25;;
76217;Laerm;65010;50.190;18.930;2024-03-23T17:35:46;44.66;39.97;47.64;;
76217;Laerm;65010;50.190;18.930;2024-03-23T17:38:50;44.64;41.36;47.91;;
76217;Laerm;65010;50.190;18.930;2024-03-23T17:41:55;44.45;41.39;47.68;;
76217;Laerm;65010;50.190;18.930;2024-03-23T17:45:00;44.84;41.65;48.38;;